This is the latest recevied weather packets stored in our database for station/object NW6UP. If no packets are shown the sender has not sent any weather packets the latest 10 day(s).
| Time | Temp. | Humidity | Pressure | Rain* | Wind** | Luminosity | Snow |
|---|---|---|---|---|---|---|---|
| 1777421963 | 21.67° C | 46% | 0 hPa | 0 mm | - | - | - |
| 1777420764 | 22.22° C | 46% | 1016.8 hPa | 0 mm | - | - | - |
| 1777419563 | 22.22° C | 42% | 1016.8 hPa | 0 mm | - | - | - |
| 1777418363 | 22.78° C | 41% | 1017 hPa | 0 mm | - | - | - |
| 1777416764 | 22.78° C | 38% | 1017.1 hPa | 0 mm | - | - | - |
| 1777416284 | 22.78° C | 38% | 1017.2 hPa | 0 mm | - | - | - |
| 1777416044 | 23.33° C | 37% | 1017.3 hPa | 0 mm | - | - | - |
| 1777415925 | 23.33° C | 37% | 1017.3 hPa | 0 mm | - | - | - |
| 1777415173 | 23.33° C | 35% | 0 hPa | 0 mm | - | - | - |
| 1777413975 | 23.89° C | 33% | 0 hPa | 0 mm | - | - | - |
| 1777412773 | 25° C | 32% | 1017.9 hPa | 0 mm | - | - | - |
| 1777411573 | 25° C | 33% | 1018.2 hPa | 0 mm | - | - | - |
| 1777410373 | 26.11° C | 33% | 1018.4 hPa | 0 mm | - | - | - |
| 1777409173 | 25° C | 37% | 1018.3 hPa | 0 mm | - | - | - |
| 1777407973 | 24.44° C | 40% | 1018.6 hPa | 0 mm | - | - | - |
| 1777406773 | 23.89° C | 39% | 1018.7 hPa | 0 mm | - | - | - |
| 1777405573 | 23.33° C | 38% | 1018.9 hPa | 0 mm | - | - | - |
| 1777404373 | 23.89° C | 38% | 0 hPa | 0 mm | - | - | - |
| 1777403413 | 22.22° C | 42% | 0 hPa | 0 mm | - | - | - |
| 1777402932 | 22.22° C | 41% | 0 hPa | 0 mm | - | - | - |
| 1777402694 | 22.78° C | 41% | 0 hPa | 0 mm | - | - | - |
| 1777402169 | 22.78° C | 42% | 1019.4 hPa | 0 mm | - | - | - |
| 1777401687 | 22.78° C | 42% | 1019.6 hPa | 0 mm | - | - | - |
| 1777401450 | 21.11° C | 44% | 0 hPa | 0 mm | - | - | - |
| 1777401328 | 21.67° C | 43% | 0 hPa | 0 mm | - | - | - |
* Rain latest hour (hover to see other rain measurements)
** Current wind speed in m/s (hover to see current wind gust speed)